createdAt,value
2024-04-15T00:00:56.564Z,9.50
2024-04-15T00:02:00.759Z,11.25
2024-04-15T00:03:02.345Z,10.75
2024-04-15T00:04:04.082Z,9.00
2024-04-15T00:05:05.838Z,9.75
2024-04-15T00:06:10.150Z,10.50
2024-04-15T00:07:11.751Z,10.75
2024-04-15T00:08:13.326Z,10.00
2024-04-15T00:09:17.489Z,10.75
2024-04-15T00:10:21.670Z,11.50
2024-04-15T00:11:23.401Z,8.75
2024-04-15T00:12:25.010Z,10.75
2024-04-15T00:13:26.553Z,12.00
2024-04-15T00:14:30.715Z,9.00
2024-04-15T00:15:32.975Z,11.00
2024-04-15T00:16:34.735Z,10.00
2024-04-15T00:17:36.362Z,10.00
2024-04-15T00:18:40.547Z,10.00
2024-04-15T00:19:42.143Z,10.25
2024-04-15T00:20:43.702Z,9.50
2024-04-15T00:21:45.474Z,11.00
2024-04-15T00:22:49.641Z,11.75
2024-04-15T00:23:51.212Z,9.50
2024-04-15T00:24:55.479Z,14.00
2024-04-15T00:25:57.082Z,11.50
2024-04-15T00:27:01.240Z,12.25
2024-04-15T00:28:02.873Z,11.00
2024-04-15T00:29:04.477Z,13.00
2024-04-15T00:30:06.995Z,15.50
2024-04-15T00:31:08.575Z,14.25
2024-04-15T00:32:12.750Z,15.00
2024-04-15T00:33:14.491Z,15.00
2024-04-15T00:34:16.111Z,14.00
2024-04-15T00:35:20.823Z,14.25
2024-04-15T00:36:22.681Z,17.75
2024-04-15T00:37:24.279Z,15.00
2024-04-15T00:38:25.834Z,14.50
2024-04-15T00:39:29.983Z,17.00
2024-04-15T00:40:34.128Z,15.75
2024-04-15T00:41:35.701Z,10.00
2024-04-15T00:42:37.253Z,12.25
2024-04-15T00:43:41.393Z,13.00
2024-04-15T00:44:43.620Z,11.75
2024-04-15T00:45:45.261Z,9.00
2024-04-15T00:46:46.922Z,11.75
2024-04-15T00:47:51.189Z,10.00
2024-04-15T00:48:52.903Z,10.00
2024-04-15T00:49:54.519Z,11.50
2024-04-15T00:50:56.053Z,12.50
2024-04-15T00:52:00.248Z,10.50
2024-04-15T00:53:03.136Z,8.75
2024-04-15T00:54:04.785Z,11.25
2024-04-15T00:55:09.277Z,10.00
2024-04-15T00:56:13.570Z,10.00
2024-04-15T00:57:15.146Z,10.00
2024-04-15T00:58:16.747Z,10.00
2024-04-15T00:59:20.886Z,11.50
2024-04-15T01:00:22.467Z,11.00
2024-04-15T01:01:24.137Z,9.00
2024-04-15T01:02:28.388Z,10.50
2024-04-15T01:03:30.087Z,10.50
2024-04-15T01:04:31.713Z,10.00
2024-04-15T01:05:33.305Z,9.00
2024-04-15T01:06:37.465Z,9.50
2024-04-15T01:07:39.016Z,9.00
2024-04-15T01:08:40.753Z,10.00
2024-04-15T01:09:44.933Z,11.00
2024-04-15T01:10:55.484Z,12.00
2024-04-15T01:12:04.674Z,11.50
2024-04-15T01:13:06.336Z,9.00
2024-04-15T01:14:10.527Z,8.75
2024-04-15T01:15:12.137Z,10.00
2024-04-15T01:16:13.828Z,10.00
2024-04-15T01:17:15.531Z,8.75
2024-04-15T01:18:19.839Z,9.25
2024-04-15T01:19:21.499Z,9.00
2024-04-15T01:20:23.079Z,9.00
2024-04-15T01:21:27.262Z,9.50
2024-04-15T01:22:30.717Z,9.00
2024-04-15T01:23:32.410Z,11.00
2024-04-15T01:24:36.658Z,9.00
2024-04-15T01:25:41.041Z,9.00
2024-04-15T01:26:46.043Z,10.00
2024-04-15T01:27:47.620Z,10.00
2024-04-15T01:28:51.816Z,9.25
2024-04-15T01:29:53.365Z,9.25
2024-04-15T01:30:55.016Z,8.00
2024-04-15T01:31:56.606Z,9.25
2024-04-15T01:33:01.805Z,9.00
2024-04-15T01:34:03.438Z,11.25
2024-04-15T01:35:05.241Z,12.00
2024-04-15T01:36:09.566Z,8.50
2024-04-15T01:37:11.161Z,10.25
2024-04-15T01:38:12.780Z,8.75
2024-04-15T01:39:16.933Z,10.00
2024-04-15T01:40:21.226Z,10.00
2024-04-15T01:41:23.305Z,13.50
2024-04-15T01:42:24.847Z,12.00
2024-04-15T01:43:28.991Z,10.00
2024-04-15T01:44:30.588Z,11.75
2024-04-15T01:45:33.202Z,10.00
2024-04-15T01:46:37.367Z,10.25
2024-04-15T01:47:39.052Z,10.75
2024-04-15T01:48:40.731Z,9.25
2024-04-15T01:49:42.298Z,12.00
2024-04-15T01:50:46.460Z,9.25
2024-04-15T01:51:48.055Z,12.25
2024-04-15T01:52:49.649Z,10.00
2024-04-15T01:53:53.835Z,11.25
2024-04-15T01:54:55.492Z,13.25
2024-04-15T01:55:59.676Z,12.25
2024-04-15T01:57:01.407Z,12.00
2024-04-15T01:58:05.646Z,10.00
2024-04-15T01:59:07.342Z,9.00
2024-04-15T02:00:09.431Z,10.75
2024-04-15T02:01:11.086Z,10.00
2024-04-15T02:02:15.263Z,10.50
2024-04-15T02:03:16.951Z,9.00
2024-04-15T02:04:18.602Z,9.00
2024-04-15T02:05:20.177Z,10.75
2024-04-15T02:06:24.333Z,11.75
2024-04-15T02:07:26.315Z,9.00
2024-04-15T02:08:27.874Z,10.50
2024-04-15T02:09:29.448Z,10.50
2024-04-15T02:10:33.656Z,10.50
2024-04-15T02:11:37.909Z,9.00
2024-04-15T02:12:39.538Z,10.25
2024-04-15T02:13:41.095Z,11.00
2024-04-15T02:14:45.274Z,10.50
2024-04-15T02:15:46.834Z,11.00
2024-04-15T02:16:48.421Z,9.50
2024-04-15T02:17:50.594Z,10.75
2024-04-15T02:18:54.910Z,10.50
2024-04-15T02:19:56.476Z,9.00
2024-04-15T02:20:58.086Z,10.75
2024-04-15T02:21:59.730Z,9.00
2024-04-15T02:23:03.941Z,11.00
2024-04-15T02:24:05.751Z,9.50
2024-04-15T02:25:07.537Z,11.25
2024-04-15T02:26:09.194Z,11.00
2024-04-15T02:27:15.958Z,11.50
2024-04-15T02:28:17.553Z,12.00
2024-04-15T02:29:19.202Z,11.00
2024-04-15T02:30:20.793Z,11.00
2024-04-15T02:31:24.933Z,9.50
2024-04-15T02:32:26.538Z,12.75
2024-04-15T02:33:28.111Z,10.50
2024-04-15T02:34:29.672Z,11.00
2024-04-15T02:35:33.809Z,13.50
2024-04-15T02:36:35.366Z,12.75
2024-04-15T02:37:36.986Z,11.50
2024-04-15T02:38:41.142Z,10.25
2024-04-15T02:39:42.841Z,14.00
2024-04-15T02:40:44.423Z,11.50
2024-04-15T02:41:46.089Z,15.00
2024-04-15T02:42:52.951Z,12.25
2024-04-15T02:43:54.510Z,12.50
2024-04-15T02:44:56.129Z,12.00
2024-04-15T02:46:00.294Z,13.75
2024-04-15T02:47:01.912Z,12.00
2024-04-15T02:48:03.770Z,14.25
2024-04-15T02:49:05.414Z,15.00
2024-04-15T02:50:07.218Z,13.50
2024-04-15T02:51:11.367Z,11.00
2024-04-15T02:52:12.990Z,12.00
2024-04-15T02:53:14.585Z,11.00
2024-04-15T02:54:16.168Z,12.00
2024-04-15T02:55:23.935Z,12.00
2024-04-15T02:56:25.975Z,14.25
2024-04-15T02:57:27.592Z,16.00
2024-04-15T02:58:31.745Z,13.75
2024-04-15T02:59:36.027Z,15.00
2024-04-15T03:00:37.604Z,12.00
2024-04-15T03:01:39.224Z,13.75
2024-04-15T03:02:40.863Z,14.75
2024-04-15T03:03:45.128Z,12.00
2024-04-15T03:04:46.877Z,12.00
2024-04-15T03:05:48.501Z,14.75
2024-04-15T03:06:52.298Z,11.50
2024-04-15T03:07:56.602Z,15.75
2024-04-15T03:08:58.153Z,14.25
2024-04-15T03:09:59.758Z,15.25
2024-04-15T03:11:08.528Z,14.75
2024-04-15T03:12:13.720Z,15.25
2024-04-15T03:13:15.319Z,15.00
2024-04-15T03:14:19.543Z,14.00
2024-04-15T03:15:21.197Z,14.25
2024-04-15T03:16:27.870Z,13.75
2024-04-15T03:17:30.128Z,15.00
2024-04-15T03:18:31.732Z,16.00
2024-04-15T03:19:35.886Z,16.00
2024-04-15T03:20:37.446Z,15.00
2024-04-15T03:21:38.985Z,12.00
2024-04-15T03:22:40.557Z,14.75
2024-04-15T03:23:44.729Z,16.50
2024-04-15T03:24:47.626Z,14.75
2024-04-15T03:25:49.193Z,14.00
2024-04-15T03:26:53.336Z,15.25
2024-04-15T03:27:54.910Z,17.75
2024-04-15T03:28:56.509Z,16.75
2024-04-15T03:30:00.693Z,15.25
2024-04-15T03:31:02.278Z,18.50
2024-04-15T03:32:06.701Z,20.50
2024-04-15T03:33:08.332Z,20.75
2024-04-15T03:34:09.953Z,17.00
2024-04-15T03:35:12.757Z,18.00
2024-04-15T03:36:17.020Z,17.00
2024-04-15T03:37:21.267Z,17.00
2024-04-15T03:38:22.842Z,18.00
2024-04-15T03:39:26.988Z,19.75
2024-04-15T03:40:28.588Z,19.50
2024-04-15T03:41:30.235Z,18.00
2024-04-15T03:42:34.474Z,22.25
2024-04-15T03:43:36.055Z,20.00
2024-04-15T03:44:39.274Z,22.00
2024-04-15T03:45:45.397Z,21.00
2024-04-15T03:46:50.548Z,22.75
2024-04-15T03:47:52.182Z,19.75
2024-04-15T03:48:54.234Z,19.50
2024-04-15T03:49:55.806Z,19.25
2024-04-15T03:50:59.994Z,19.00
2024-04-15T03:52:01.752Z,21.75
2024-04-15T03:53:03.424Z,20.00
2024-04-15T03:54:05.048Z,21.75
2024-04-15T03:55:09.214Z,19.50
2024-04-15T03:56:10.780Z,23.25
2024-04-15T03:57:12.359Z,21.50
2024-04-15T03:58:17.696Z,20.00
2024-04-15T03:59:21.960Z,24.50
2024-04-15T04:00:23.523Z,20.50
2024-04-15T04:01:27.822Z,17.25
2024-04-15T04:02:29.455Z,22.25
2024-04-15T04:03:33.611Z,25.75
2024-04-15T04:04:35.323Z,24.25
2024-04-15T04:05:36.893Z,21.25
2024-04-15T04:06:38.442Z,23.00
2024-04-15T04:07:42.610Z,22.50
2024-04-15T04:08:44.184Z,21.75
2024-04-15T04:09:45.981Z,20.00
2024-04-15T04:10:50.964Z,23.25
2024-04-15T04:11:52.602Z,24.75
2024-04-15T04:12:54.217Z,25.00
2024-04-15T04:13:55.817Z,22.50
2024-04-15T04:14:59.933Z,22.25
2024-04-15T04:16:01.543Z,23.75
2024-04-15T04:17:05.744Z,26.75
2024-04-15T04:18:07.472Z,23.25
2024-04-15T04:19:11.676Z,25.75
2024-04-15T04:20:13.271Z,22.25
2024-04-15T04:21:14.824Z,25.50
2024-04-15T04:22:19.042Z,22.75
2024-04-15T04:23:20.655Z,29.50
2024-04-15T04:24:22.278Z,23.25
2024-04-15T04:25:24.846Z,22.25
2024-04-15T04:26:29.016Z,21.00
2024-04-15T04:27:30.573Z,27.25
2024-04-15T04:28:32.110Z,23.50
2024-04-15T04:29:33.820Z,26.00
2024-04-15T04:30:38.192Z,25.25
2024-04-15T04:31:39.779Z,29.50
2024-04-15T04:32:44.208Z,24.50
2024-04-15T04:33:45.895Z,27.25
2024-04-15T04:34:50.147Z,24.25
2024-04-15T04:35:51.781Z,27.25
2024-04-15T04:36:53.341Z,26.50
2024-04-15T04:37:55.068Z,27.50
2024-04-15T04:38:59.198Z,32.00
2024-04-15T04:40:00.811Z,34.25
2024-04-15T04:41:02.444Z,29.25
2024-04-15T04:42:06.673Z,28.25
2024-04-15T04:43:08.516Z,29.00
2024-04-15T04:44:10.080Z,29.25
2024-04-15T04:45:11.634Z,30.00
2024-04-15T04:46:16.075Z,31.75
2024-04-15T04:47:20.654Z,29.25
2024-04-15T04:48:24.880Z,31.00
2024-04-15T04:49:26.502Z,27.75
2024-04-15T04:50:30.690Z,33.75
2024-04-15T04:51:32.729Z,30.75
2024-04-15T04:52:34.357Z,33.00
2024-04-15T04:53:38.523Z,32.75
2024-04-15T04:54:40.091Z,28.50
2024-04-15T04:55:41.649Z,28.25
2024-04-15T04:56:43.362Z,32.25
2024-04-15T04:57:47.553Z,33.75
2024-04-15T04:58:49.335Z,30.00
2024-04-15T04:59:53.253Z,33.25
2024-04-15T05:00:57.440Z,33.00
2024-04-15T05:01:59.170Z,30.75
2024-04-15T05:03:01.040Z,34.50
2024-04-15T05:04:09.769Z,34.75
2024-04-15T05:05:11.373Z,37.00
2024-04-15T05:06:13.389Z,31.50
2024-04-15T05:07:15.010Z,33.25
2024-04-15T05:08:19.193Z,34.00
2024-04-15T05:09:20.782Z,33.25
2024-04-15T05:10:22.438Z,33.25
2024-04-15T05:11:24.102Z,31.50
2024-04-15T05:12:28.324Z,31.50
2024-04-15T05:13:29.895Z,30.25
2024-04-15T05:14:31.470Z,37.25
2024-04-15T05:15:33.042Z,32.50
2024-04-15T05:16:37.213Z,31.00
2024-04-15T05:17:38.872Z,35.00
2024-04-15T05:18:41.053Z,30.75
2024-04-15T05:19:47.906Z,31.50
2024-04-15T05:20:50.594Z,36.00
2024-04-15T05:21:52.190Z,27.50
2024-04-15T05:22:53.750Z,35.00
2024-04-15T05:23:57.938Z,37.50
2024-04-15T05:24:59.571Z,32.75
2024-04-15T05:26:01.529Z,32.25
2024-04-15T05:27:05.737Z,30.75
2024-04-15T05:28:07.350Z,32.25
2024-04-15T05:29:08.961Z,32.25
2024-04-15T05:30:10.960Z,34.75
2024-04-15T05:31:15.158Z,32.00
2024-04-15T05:32:16.983Z,34.50
2024-04-15T05:33:18.642Z,32.50
2024-04-15T05:34:20.358Z,34.25
2024-04-15T05:35:27.203Z,34.00
2024-04-15T05:36:28.809Z,30.75
2024-04-15T05:37:30.363Z,30.50
2024-04-15T05:38:34.536Z,33.75
2024-04-15T05:39:36.175Z,30.25
2024-04-15T05:40:37.784Z,30.75
2024-04-15T05:41:39.347Z,30.00
2024-04-15T05:42:43.686Z,31.75
2024-04-15T05:43:45.342Z,32.25
2024-04-15T05:44:46.923Z,30.25
2024-04-15T05:45:48.567Z,30.75
2024-04-15T05:46:53.109Z,27.00
2024-04-15T05:47:54.756Z,25.25
2024-04-15T05:48:56.414Z,28.00
2024-04-15T05:49:58.080Z,28.25
2024-04-15T05:51:04.884Z,34.75
2024-04-15T05:52:06.884Z,26.50
2024-04-15T05:53:08.490Z,34.50
2024-04-15T05:54:12.664Z,27.50
2024-04-15T05:55:14.415Z,31.00
2024-04-15T05:56:16.214Z,28.50
2024-04-15T05:57:17.857Z,30.25
2024-04-15T05:58:22.070Z,29.00
2024-04-15T05:59:23.855Z,29.50
2024-04-15T06:00:25.425Z,26.25
2024-04-15T06:01:27.201Z,24.50
2024-04-15T06:02:31.581Z,26.00
2024-04-15T06:03:33.283Z,27.00
2024-04-15T06:04:36.671Z,28.50
2024-04-15T06:05:40.944Z,28.50
2024-04-15T06:06:45.235Z,28.50
2024-04-15T06:07:46.905Z,26.25
2024-04-15T06:08:51.216Z,25.00
2024-04-15T06:09:52.805Z,24.50
2024-04-15T06:10:54.430Z,20.00
2024-04-15T06:11:56.062Z,22.25
2024-04-15T06:13:00.310Z,27.25
2024-04-15T06:14:03.420Z,22.25
2024-04-15T06:15:05.398Z,22.00
2024-04-15T06:16:09.878Z,23.25
2024-04-15T06:17:11.589Z,25.25
2024-04-15T06:18:13.689Z,21.50
2024-04-15T06:19:18.348Z,22.00
2024-04-15T06:20:22.429Z,22.50
2024-04-15T06:21:24.407Z,23.50
2024-04-15T06:22:28.602Z,23.75
2024-04-15T06:23:32.878Z,20.50
2024-04-15T06:24:34.478Z,21.50
2024-04-15T06:25:36.035Z,19.25
2024-04-15T06:26:37.915Z,20.75
2024-04-15T06:27:42.099Z,19.75
2024-04-15T06:28:43.757Z,20.00
2024-04-15T06:29:45.384Z,18.75
2024-04-15T06:30:46.998Z,18.00
2024-04-15T06:31:51.392Z,19.00
2024-04-15T06:32:53.050Z,19.00
2024-04-15T06:33:54.792Z,19.75
2024-04-15T06:34:58.956Z,20.75
2024-04-15T06:36:00.543Z,15.75
2024-04-15T06:37:02.212Z,17.75
2024-04-15T06:38:10.832Z,16.00
2024-04-15T06:39:12.522Z,19.00
2024-04-15T06:40:14.178Z,15.75
2024-04-15T06:41:15.844Z,18.00
2024-04-15T06:42:19.994Z,16.25
2024-04-15T06:43:21.618Z,18.50
2024-04-15T06:44:23.350Z,14.25
2024-04-15T06:45:24.946Z,15.00
2024-04-15T06:46:30.428Z,16.50
2024-04-15T06:47:31.994Z,17.25
2024-04-15T06:48:33.546Z,12.75
2024-04-15T06:49:35.245Z,14.25
2024-04-15T06:50:40.568Z,14.50
2024-04-15T06:51:42.147Z,16.00
2024-04-15T06:52:43.713Z,13.50
2024-04-15T06:53:50.488Z,13.75
2024-04-15T06:54:52.140Z,16.00
2024-04-15T06:55:53.700Z,13.75
2024-04-15T06:56:57.845Z,16.25
2024-04-15T06:57:59.480Z,12.50
2024-04-15T06:59:01.078Z,14.50
2024-04-15T07:00:02.779Z,10.25
2024-04-15T07:01:07.273Z,13.00
2024-04-15T07:02:09.117Z,12.75
2024-04-15T07:03:10.804Z,12.00
2024-04-15T07:04:12.578Z,12.75
2024-04-15T07:05:18.669Z,14.75
2024-04-15T07:06:20.258Z,14.75
2024-04-15T07:07:22.503Z,12.25
2024-04-15T07:08:24.223Z,13.25
2024-04-15T07:09:31.054Z,13.75
2024-04-15T07:10:34.237Z,14.75
2024-04-15T07:11:35.886Z,14.00
2024-04-15T07:12:40.085Z,11.75
2024-04-15T07:13:41.787Z,10.00
2024-04-15T07:14:43.423Z,12.25
2024-04-15T07:15:45.183Z,11.50
2024-04-15T07:16:49.670Z,13.00
2024-04-15T07:17:51.348Z,13.00
2024-04-15T07:18:52.966Z,12.25
2024-04-15T07:19:54.546Z,11.75
2024-04-15T07:20:58.789Z,12.00
2024-04-15T07:22:00.378Z,10.75
2024-04-15T07:23:01.997Z,15.75
2024-04-15T07:24:03.860Z,13.00
2024-04-15T07:25:10.838Z,11.75
2024-04-15T07:26:12.673Z,13.00
2024-04-15T07:27:14.263Z,15.25
2024-04-15T07:28:18.597Z,13.25
2024-04-15T07:29:20.250Z,15.00
2024-04-15T07:30:21.879Z,13.00
2024-04-15T07:31:25.235Z,13.00
2024-04-15T07:32:29.600Z,14.00
2024-04-15T07:33:31.216Z,12.50
2024-04-15T07:34:32.904Z,12.25
2024-04-15T07:35:35.145Z,11.50
2024-04-15T07:36:39.361Z,11.75
2024-04-15T07:37:41.052Z,12.00
2024-04-15T07:38:42.587Z,9.25
2024-04-15T07:39:46.907Z,10.25
2024-04-15T07:40:53.738Z,10.00
2024-04-15T07:41:55.280Z,9.25
2024-04-15T07:42:56.987Z,9.25
2024-04-15T07:43:58.630Z,11.00
2024-04-15T07:45:02.779Z,9.50
2024-04-15T07:46:04.609Z,10.00
2024-04-15T07:47:06.348Z,9.50
2024-04-15T07:48:08.324Z,10.00
2024-04-15T07:49:12.671Z,9.25
2024-04-15T07:50:14.439Z,9.25
2024-04-15T07:51:18.710Z,9.50
2024-04-15T07:52:20.399Z,10.50
2024-04-15T07:53:24.641Z,10.00
2024-04-15T07:54:26.310Z,8.50
2024-04-15T07:55:27.924Z,11.00
2024-04-15T07:56:32.310Z,10.50
2024-04-15T07:57:36.560Z,9.00
2024-04-15T07:58:38.281Z,9.00
2024-04-15T07:59:39.848Z,7.00
2024-04-15T08:00:45.167Z,10.00
2024-04-15T08:01:47.233Z,8.00
2024-04-15T08:02:48.909Z,11.00
2024-04-15T08:03:53.261Z,8.50
2024-04-15T08:04:55.038Z,8.75
2024-04-15T08:05:56.642Z,9.00
2024-04-15T08:07:06.824Z,8.50
2024-04-15T08:08:17.131Z,8.50
2024-04-15T08:09:19.183Z,7.50
2024-04-15T08:10:21.452Z,8.75
2024-04-15T08:11:25.741Z,8.00
2024-04-15T08:12:30.238Z,9.00
2024-04-15T08:13:31.867Z,6.50
2024-04-15T08:14:33.449Z,7.00
2024-04-15T08:15:37.623Z,7.00
2024-04-15T08:16:39.250Z,7.00
2024-04-15T08:17:40.932Z,7.00
2024-04-15T08:18:45.273Z,7.00
2024-04-15T08:19:46.893Z,7.00
2024-04-15T08:20:53.965Z,7.25
2024-04-15T08:21:55.567Z,7.00
2024-04-15T08:22:59.766Z,4.00
2024-04-15T08:24:01.329Z,6.00
2024-04-15T08:25:09.511Z,5.75
2024-04-15T08:26:13.800Z,7.00
2024-04-15T08:27:15.489Z,5.75
2024-04-15T08:28:19.836Z,6.50
2024-04-15T08:29:21.522Z,6.00
2024-04-15T08:30:26.082Z,5.75
2024-04-15T08:31:27.706Z,7.00
2024-04-15T08:32:29.427Z,5.75
2024-04-15T08:33:33.849Z,5.75
2024-04-15T08:34:35.557Z,7.00
2024-04-15T08:35:37.191Z,5.75
2024-04-15T08:36:38.810Z,6.50
2024-04-15T08:37:43.019Z,6.75
2024-04-15T08:38:45.955Z,6.00
2024-04-15T08:39:47.664Z,7.00
2024-04-15T08:40:50.702Z,5.00
2024-04-15T08:42:04.096Z,4.25
2024-04-15T08:43:07.932Z,5.75
2024-04-15T08:44:12.155Z,4.00
2024-04-15T08:45:18.440Z,6.50
2024-04-15T08:46:22.827Z,4.00
2024-04-15T08:47:24.912Z,7.25
2024-04-15T08:48:29.246Z,6.75
2024-04-15T08:49:30.833Z,7.00
2024-04-15T08:50:32.468Z,5.00
2024-04-15T08:51:36.648Z,5.75
2024-04-15T08:52:38.532Z,4.00
2024-04-15T08:53:40.179Z,4.00
2024-04-15T08:54:44.410Z,5.00
2024-04-15T08:55:45.974Z,4.50
2024-04-15T08:56:47.531Z,5.00
2024-04-15T08:57:49.200Z,4.50
2024-04-15T08:58:54.158Z,5.50
2024-04-15T08:59:58.399Z,4.00
2024-04-15T09:01:00.160Z,4.50
2024-04-15T09:02:01.948Z,7.00
2024-04-15T09:03:06.544Z,4.00
2024-04-15T09:04:08.501Z,4.75
2024-04-15T09:05:12.503Z,4.50
2024-04-15T09:06:14.484Z,4.50
2024-04-15T09:07:18.801Z,4.00
2024-04-15T09:08:20.435Z,4.00
2024-04-15T09:09:22.470Z,4.50
2024-04-15T09:10:24.087Z,7.00
2024-04-15T09:11:28.340Z,4.00
2024-04-15T09:12:33.207Z,4.00
2024-04-15T09:13:34.793Z,4.00
2024-04-15T09:14:38.902Z,5.00
2024-04-15T09:15:46.074Z,4.00
2024-04-15T09:16:47.752Z,5.00
2024-04-15T09:17:51.273Z,5.00
2024-04-15T09:18:55.526Z,4.00
2024-04-15T09:19:57.532Z,3.50
2024-04-15T09:21:01.189Z,5.00
2024-04-15T09:22:04.682Z,4.00
2024-04-15T09:23:11.284Z,4.75
2024-04-15T09:24:12.895Z,5.00
2024-04-15T09:25:14.756Z,4.00
2024-04-15T09:26:16.399Z,4.50
2024-04-15T09:27:22.596Z,4.50
2024-04-15T09:28:24.857Z,4.75
2024-04-15T09:29:26.549Z,4.00
2024-04-15T09:30:30.841Z,3.50
2024-04-15T09:31:37.703Z,4.00
2024-04-15T09:32:39.317Z,5.00
2024-04-15T09:33:40.884Z,4.50
2024-04-15T09:34:45.040Z,4.75
2024-04-15T09:35:46.619Z,4.00
2024-04-15T09:36:48.280Z,2.50
2024-04-15T09:37:49.867Z,4.00
2024-04-15T09:38:54.431Z,4.00
2024-04-15T09:39:56.039Z,4.75
2024-04-15T09:40:57.654Z,4.75
2024-04-15T09:41:59.375Z,5.00
2024-04-15T09:43:04.015Z,3.50
2024-04-15T09:44:05.889Z,5.00
2024-04-15T09:45:07.802Z,4.00
2024-04-15T09:46:09.577Z,5.00
2024-04-15T09:47:16.542Z,4.25
2024-04-15T09:48:18.510Z,4.00
2024-04-15T09:49:20.266Z,4.50
2024-04-15T09:50:22.094Z,4.00
2024-04-15T09:51:27.533Z,4.25
2024-04-15T09:52:30.532Z,5.75
2024-04-15T09:53:35.954Z,4.25
2024-04-15T09:54:37.524Z,5.00
2024-04-15T09:55:44.928Z,4.00
2024-04-15T09:56:48.365Z,4.00
2024-04-15T09:57:49.979Z,3.00
2024-04-15T09:58:53.019Z,4.00
2024-04-15T09:59:58.804Z,2.00
2024-04-15T10:01:00.445Z,4.00
2024-04-15T10:02:02.524Z,4.00
2024-04-15T10:03:08.767Z,4.00
2024-04-15T10:04:19.703Z,4.00
2024-04-15T10:05:21.867Z,2.50
2024-04-15T10:06:24.904Z,5.25
2024-04-15T10:07:26.860Z,4.00
2024-04-15T10:08:31.079Z,4.00
2024-04-15T10:09:33.174Z,3.50
2024-04-15T10:10:34.844Z,3.50
2024-04-15T10:11:39.036Z,4.00
2024-04-15T10:12:40.628Z,3.00
2024-04-15T10:13:42.215Z,4.25
2024-04-15T10:14:43.834Z,4.00
2024-04-15T10:15:48.079Z,4.00
2024-04-15T10:16:49.893Z,2.00
2024-04-15T10:17:57.906Z,3.50
2024-04-15T10:19:02.179Z,4.00
2024-04-15T10:20:08.140Z,4.00
2024-04-15T10:21:12.465Z,4.50
2024-04-15T10:22:16.190Z,4.00
2024-04-15T10:23:18.188Z,5.25
2024-04-15T10:24:22.346Z,3.00
2024-04-15T10:25:23.933Z,4.00
2024-04-15T10:26:27.182Z,4.00
2024-04-15T10:27:28.738Z,4.00
2024-04-15T10:28:32.935Z,3.50
2024-04-15T10:29:34.521Z,4.00
2024-04-15T10:30:37.480Z,2.00
2024-04-15T10:31:40.388Z,3.00
2024-04-15T10:32:46.607Z,2.00
2024-04-15T10:33:48.661Z,2.00
2024-04-15T10:34:54.443Z,7.00
2024-04-15T10:35:58.595Z,2.00
2024-04-15T10:37:00.241Z,4.00
2024-04-15T10:38:02.352Z,5.00
2024-04-15T10:39:07.274Z,4.00
2024-04-15T10:40:09.119Z,5.00
2024-04-15T10:41:10.758Z,4.00
2024-04-15T10:42:13.377Z,2.50
2024-04-15T10:43:18.520Z,4.50
2024-04-15T10:44:20.209Z,5.00
2024-04-15T10:45:21.750Z,2.00
2024-04-15T10:46:23.338Z,4.00
2024-04-15T10:47:27.577Z,4.00
2024-04-15T10:48:29.290Z,4.00
2024-04-15T10:49:30.913Z,2.00
2024-04-15T10:50:35.193Z,4.00
2024-04-15T10:51:36.760Z,2.00
2024-04-15T10:52:41.049Z,4.50
2024-04-15T10:53:42.887Z,4.00
2024-04-15T10:54:44.477Z,5.00
2024-04-15T10:55:46.141Z,4.25
2024-04-15T10:56:50.543Z,3.50
2024-04-15T10:57:55.173Z,2.00
2024-04-15T10:58:56.993Z,4.75
2024-04-15T10:59:58.550Z,4.25
2024-04-15T11:01:02.807Z,4.00
2024-04-15T11:02:07.825Z,2.00
2024-04-15T11:03:09.570Z,2.00
2024-04-15T11:04:11.777Z,3.50
2024-04-15T11:05:16.329Z,3.75
2024-04-15T11:06:20.571Z,3.00
2024-04-15T11:07:22.270Z,2.00
2024-04-15T11:08:26.591Z,1.75
2024-04-15T11:09:28.316Z,4.75
2024-04-15T11:10:30.050Z,3.75
2024-04-15T11:11:33.616Z,2.00
2024-04-15T11:12:37.801Z,2.00
2024-04-15T11:13:40.041Z,1.50
2024-04-15T11:14:41.636Z,2.00
2024-04-15T11:15:46.094Z,2.25
2024-04-15T11:16:47.983Z,2.00
2024-04-15T11:17:50.135Z,2.75
2024-04-15T11:18:52.808Z,4.00
2024-04-15T11:20:01.687Z,2.00
2024-04-15T11:21:04.074Z,2.00
2024-04-15T11:22:09.304Z,2.00
2024-04-15T11:23:14.679Z,2.00
2024-04-15T11:24:17.453Z,2.00
2024-04-15T11:25:19.484Z,3.75
2024-04-15T11:26:23.750Z,3.25
2024-04-15T11:27:26.433Z,1.00
2024-04-15T11:28:28.436Z,2.00
2024-04-15T11:29:30.225Z,2.00
2024-04-15T11:30:35.632Z,1.75
2024-04-15T11:31:37.751Z,2.00
2024-04-15T11:32:39.525Z,3.75
2024-04-15T11:33:43.888Z,3.75
2024-04-15T11:34:45.636Z,4.00
2024-04-15T11:35:47.911Z,2.00
2024-04-15T11:36:49.498Z,1.75
2024-04-15T11:37:59.721Z,2.00
2024-04-15T11:39:01.809Z,3.75
2024-04-15T11:40:04.124Z,3.00
2024-04-15T11:41:05.793Z,2.50
2024-04-15T11:42:10.386Z,2.00
2024-04-15T11:43:12.217Z,2.00
2024-04-15T11:44:13.827Z,2.00
2024-04-15T11:45:15.697Z,2.00
2024-04-15T11:46:20.250Z,2.00
2024-04-15T11:47:21.971Z,1.50
2024-04-15T11:48:23.799Z,2.00
2024-04-15T11:49:28.424Z,3.50
2024-04-15T11:50:30.089Z,2.00
2024-04-15T11:51:31.690Z,2.00
2024-04-15T11:52:33.483Z,2.00
2024-04-15T11:53:40.693Z,2.00
2024-04-15T11:54:42.346Z,2.00
2024-04-15T11:55:44.051Z,2.00
2024-04-15T11:56:45.723Z,4.00
2024-04-15T11:57:50.054Z,2.00
2024-04-15T11:58:51.738Z,2.00
2024-04-15T11:59:53.711Z,2.00
2024-04-15T12:00:55.392Z,4.00
2024-04-15T12:01:59.615Z,2.00
2024-04-15T12:03:01.449Z,4.00
2024-04-15T12:04:03.124Z,1.25
2024-04-15T12:05:08.745Z,4.50
2024-04-15T12:06:11.245Z,3.50
2024-04-15T12:07:12.811Z,2.50
2024-04-15T12:08:14.389Z,3.50
2024-04-15T12:09:21.145Z,2.00
2024-04-15T12:10:22.841Z,3.50
2024-04-15T12:11:24.512Z,4.00
2024-04-15T12:12:28.677Z,2.00
2024-04-15T12:13:30.267Z,2.00
2024-04-15T12:14:31.812Z,3.75
2024-04-15T12:15:33.639Z,2.50
2024-04-15T12:16:38.132Z,3.00
2024-04-15T12:17:39.979Z,2.00
2024-04-15T12:18:41.727Z,3.75
2024-04-15T12:19:43.267Z,2.25
2024-04-15T12:20:47.438Z,2.50
2024-04-15T12:21:49.085Z,3.75
2024-04-15T12:22:50.697Z,2.00
2024-04-15T12:23:52.303Z,2.00
2024-04-15T12:25:07.140Z,2.00
2024-04-15T12:26:10.796Z,4.00
2024-04-15T12:27:12.362Z,2.00
2024-04-15T12:28:14.011Z,2.00
2024-04-15T12:29:18.219Z,2.25
2024-04-15T12:30:19.836Z,3.75
2024-04-15T12:31:21.476Z,3.75
2024-04-15T12:32:23.155Z,3.00
2024-04-15T12:33:27.389Z,1.25
2024-04-15T12:34:29.142Z,2.00
2024-04-15T12:35:31.412Z,4.75
2024-04-15T12:36:32.992Z,2.00
2024-04-15T12:37:37.217Z,2.00
2024-04-15T12:38:38.824Z,3.00
2024-04-15T12:39:41.527Z,2.00
2024-04-15T12:40:48.279Z,3.75
2024-04-15T12:41:49.864Z,2.00
2024-04-15T12:42:51.484Z,2.00
2024-04-15T12:43:53.078Z,2.00
2024-04-15T12:44:57.284Z,3.00
2024-04-15T12:45:58.908Z,2.00
2024-04-15T12:47:01.728Z,2.00
2024-04-15T12:48:03.863Z,3.00
2024-04-15T12:49:10.272Z,2.00
2024-04-15T12:50:11.899Z,2.25
2024-04-15T12:51:14.712Z,2.00
2024-04-15T12:52:16.462Z,2.00
2024-04-15T12:53:20.669Z,2.75
2024-04-15T12:54:22.281Z,2.75
2024-04-15T12:55:23.873Z,2.00
2024-04-15T12:56:28.125Z,2.00
2024-04-15T12:57:32.802Z,2.00
2024-04-15T12:58:34.451Z,1.75
2024-04-15T12:59:36.114Z,5.00
2024-04-15T13:00:40.284Z,3.00
2024-04-15T13:01:54.490Z,2.25
2024-04-15T13:03:02.663Z,2.00
2024-04-15T13:04:05.536Z,2.50
2024-04-15T13:05:10.786Z,2.00
2024-04-15T13:06:12.521Z,1.50
2024-04-15T13:07:14.448Z,2.50
2024-04-15T13:08:16.450Z,2.00
2024-04-15T13:09:20.683Z,1.50
2024-04-15T13:10:22.299Z,2.00
2024-04-15T13:11:23.930Z,2.00
2024-04-15T13:12:28.098Z,2.25
2024-04-15T13:13:32.424Z,2.00
2024-04-15T13:14:34.016Z,3.00
2024-04-15T13:15:35.603Z,3.50
2024-04-15T13:16:37.191Z,1.25
2024-04-15T13:17:41.477Z,2.00
2024-04-15T13:18:43.188Z,2.00
2024-04-15T13:19:45.141Z,2.00
2024-04-15T13:20:49.304Z,2.00
2024-04-15T13:21:50.900Z,2.00
2024-04-15T13:22:55.681Z,2.00
2024-04-15T13:23:57.370Z,3.75
2024-04-15T13:25:01.654Z,2.00
2024-04-15T13:26:03.581Z,4.75
2024-04-15T13:27:05.996Z,2.00
2024-04-15T13:28:13.323Z,2.00
2024-04-15T13:29:15.043Z,2.00
2024-04-15T13:30:16.735Z,4.00
2024-04-15T13:31:21.237Z,2.75
2024-04-15T13:32:23.020Z,2.50
2024-04-15T13:33:25.068Z,2.00
2024-04-15T13:34:27.107Z,2.50
2024-04-15T13:35:31.569Z,4.00
2024-04-15T13:36:33.537Z,2.00
2024-04-15T13:37:35.241Z,2.00
2024-04-15T13:38:36.826Z,3.00
2024-04-15T13:39:42.081Z,2.25
2024-04-15T13:40:43.928Z,3.75
2024-04-15T13:41:45.583Z,2.00
2024-04-15T13:42:47.617Z,2.25